Terminal Aerodrome Forecast
Issued by NWS

Home | Current Version | Previous Version | Text Only | Print | Product List | Glossary On
Versions: 1 2 3 4 5 6 7 8 9 10 11 12 13 14 15 16 17 18
292
FTUS44 KTSA 201812 AAA
TAFMLC
TAF AMD
KMLC 201812Z 2018/2118 22018G23KT 4SM -TSRA BR FEW014 BKN030
      OVC050CB
      TEMPO 2018/2021 VRB20G30KT 1SM +TSRA OVC015CB
     FM202100 36012G22KT 4SM -RA BR OVC015
     FM210400 36012G20KT 4SM -RA BR OVC007
     FM211700 01011KT P6SM OVC007=

USA.gov is the U.S. government's official web portal to all federal, state and local government web resources and services.